sensor_id;sensor_type;location;lat;lon;timestamp;temperature;humidity
67870;DHT22;54673;52.262;6.830;2022-10-19T00:03:34;19.10;59.80
67870;DHT22;54673;52.262;6.830;2022-10-19T00:06:09;19.10;59.80
67870;DHT22;54673;52.262;6.830;2022-10-19T00:08:35;19.10;59.80
67870;DHT22;54673;52.262;6.830;2022-10-19T00:11:00;19.10;59.70
67870;DHT22;54673;52.262;6.830;2022-10-19T00:13:26;19.00;59.70
67870;DHT22;54673;52.262;6.830;2022-10-19T00:15:51;19.00;59.60
67870;DHT22;54673;52.262;6.830;2022-10-19T00:18:17;19.00;59.50
67870;DHT22;54673;52.262;6.830;2022-10-19T00:20:43;19.00;59.50
67870;DHT22;54673;52.262;6.830;2022-10-19T00:23:08;19.00;59.60
67870;DHT22;54673;52.262;6.830;2022-10-19T00:25:34;19.00;59.50
67870;DHT22;54673;52.262;6.830;2022-10-19T00:28:01;19.00;59.50
67870;DHT22;54673;52.262;6.830;2022-10-19T00:30:27;19.00;59.40
67870;DHT22;54673;52.262;6.830;2022-10-19T00:32:52;19.00;59.30
67870;DHT22;54673;52.262;6.830;2022-10-19T00:35:18;19.00;59.30
67870;DHT22;54673;52.262;6.830;2022-10-19T00:37:43;19.00;59.30
67870;DHT22;54673;52.262;6.830;2022-10-19T00:40:09;19.00;59.30
67870;DHT22;54673;52.262;6.830;2022-10-19T00:42:35;19.00;59.30
67870;DHT22;54673;52.262;6.830;2022-10-19T00:45:06;19.00;59.30
67870;DHT22;54673;52.262;6.830;2022-10-19T00:47:35;18.90;59.20
67870;DHT22;54673;52.262;6.830;2022-10-19T00:50:01;18.90;59.20
67870;DHT22;54673;52.262;6.830;2022-10-19T00:52:28;18.90;59.10
67870;DHT22;54673;52.262;6.830;2022-10-19T00:54:55;18.90;59.10
67870;DHT22;54673;52.262;6.830;2022-10-19T00:57:22;18.90;59.10
67870;DHT22;54673;52.262;6.830;2022-10-19T00:59:50;18.90;58.90
67870;DHT22;54673;52.262;6.830;2022-10-19T01:02:16;18.90;58.90
67870;DHT22;54673;52.262;6.830;2022-10-19T01:04:46;18.90;58.80
67870;DHT22;54673;52.262;6.830;2022-10-19T01:07:13;18.90;58.90
67870;DHT22;54673;52.262;6.830;2022-10-19T01:09:38;18.80;58.80
67870;DHT22;54673;52.262;6.830;2022-10-19T01:31:25;18.80;58.50
67870;DHT22;54673;52.262;6.830;2022-10-19T01:37:16;18.80;58.50
67870;DHT22;54673;52.262;6.830;2022-10-19T01:39:58;18.80;58.50
67870;DHT22;54673;52.262;6.830;2022-10-19T01:50:09;18.70;58.30
67870;DHT22;54673;52.262;6.830;2022-10-19T01:52:40;18.70;58.20
67870;DHT22;54673;52.262;6.830;2022-10-19T01:55:09;18.70;58.20
67870;DHT22;54673;52.262;6.830;2022-10-19T01:57:41;18.70;58.10
67870;DHT22;54673;52.262;6.830;2022-10-19T02:00:12;18.70;58.10
67870;DHT22;54673;52.262;6.830;2022-10-19T02:02:46;18.70;58.10
67870;DHT22;54673;52.262;6.830;2022-10-19T02:05:14;18.70;58.00
67870;DHT22;54673;52.262;6.830;2022-10-19T02:07:45;18.70;58.00
67870;DHT22;54673;52.262;6.830;2022-10-19T02:10:13;18.60;57.90
67870;DHT22;54673;52.262;6.830;2022-10-19T02:12:39;18.60;57.90
67870;DHT22;54673;52.262;6.830;2022-10-19T02:15:09;18.60;57.80
67870;DHT22;54673;52.262;6.830;2022-10-19T02:17:39;18.70;57.90
67870;DHT22;54673;52.262;6.830;2022-10-19T02:20:07;18.60;57.80
67870;DHT22;54673;52.262;6.830;2022-10-19T02:22:32;18.60;57.80
67870;DHT22;54673;52.262;6.830;2022-10-19T02:24:58;18.60;57.70
67870;DHT22;54673;52.262;6.830;2022-10-19T02:27:24;18.60;57.70
67870;DHT22;54673;52.262;6.830;2022-10-19T02:29:50;18.60;57.70
67870;DHT22;54673;52.262;6.830;2022-10-19T02:32:16;18.60;57.60
67870;DHT22;54673;52.262;6.830;2022-10-19T02:34:42;18.60;57.60
67870;DHT22;54673;52.262;6.830;2022-10-19T02:37:08;18.60;57.60
67870;DHT22;54673;52.262;6.830;2022-10-19T02:39:34;18.60;57.50
67870;DHT22;54673;52.262;6.830;2022-10-19T02:42:13;18.60;57.50
67870;DHT22;54673;52.262;6.830;2022-10-19T02:47:54;18.60;57.50
67870;DHT22;54673;52.262;6.830;2022-10-19T02:50:22;18.60;58.30
67870;DHT22;54673;52.262;6.830;2022-10-19T02:52:48;18.50;57.40
67870;DHT22;54673;52.262;6.830;2022-10-19T02:55:13;18.50;57.40
67870;DHT22;54673;52.262;6.830;2022-10-19T02:57:39;18.50;57.30
67870;DHT22;54673;52.262;6.830;2022-10-19T03:00:06;18.50;57.30
67870;DHT22;54673;52.262;6.830;2022-10-19T03:02:32;18.50;57.30
67870;DHT22;54673;52.262;6.830;2022-10-19T03:04:58;18.50;57.20
67870;DHT22;54673;52.262;6.830;2022-10-19T03:07:24;18.50;57.30
67870;DHT22;54673;52.262;6.830;2022-10-19T03:09:49;18.50;57.10
67870;DHT22;54673;52.262;6.830;2022-10-19T03:12:16;18.50;57.20
67870;DHT22;54673;52.262;6.830;2022-10-19T03:14:42;18.40;57.10
67870;DHT22;54673;52.262;6.830;2022-10-19T03:17:08;18.50;57.10
67870;DHT22;54673;52.262;6.830;2022-10-19T03:19:35;18.50;57.00
67870;DHT22;54673;52.262;6.830;2022-10-19T03:22:00;18.50;57.00
67870;DHT22;54673;52.262;6.830;2022-10-19T03:24:26;18.50;57.00
67870;DHT22;54673;52.262;6.830;2022-10-19T03:26:53;18.40;57.00
67870;DHT22;54673;52.262;6.830;2022-10-19T03:29:19;18.40;56.90
67870;DHT22;54673;52.262;6.830;2022-10-19T03:31:44;18.40;56.90
67870;DHT22;54673;52.262;6.830;2022-10-19T03:34:10;18.40;56.90
67870;DHT22;54673;52.262;6.830;2022-10-19T03:36:38;18.40;56.90
67870;DHT22;54673;52.262;6.830;2022-10-19T03:39:12;18.40;56.80
67870;DHT22;54673;52.262;6.830;2022-10-19T03:41:38;18.40;56.80
67870;DHT22;54673;52.262;6.830;2022-10-19T03:44:06;18.40;56.70
67870;DHT22;54673;52.262;6.830;2022-10-19T03:46:32;18.40;56.80
67870;DHT22;54673;52.262;6.830;2022-10-19T03:48:58;18.40;56.70
67870;DHT22;54673;52.262;6.830;2022-10-19T03:51:26;18.40;56.70
67870;DHT22;54673;52.262;6.830;2022-10-19T03:53:53;18.40;56.70
67870;DHT22;54673;52.262;6.830;2022-10-19T03:56:21;18.40;56.70
67870;DHT22;54673;52.262;6.830;2022-10-19T03:58:48;18.40;56.70
67870;DHT22;54673;52.262;6.830;2022-10-19T04:01:17;18.40;56.60
67870;DHT22;54673;52.262;6.830;2022-10-19T04:03:43;18.40;56.60
67870;DHT22;54673;52.262;6.830;2022-10-19T04:06:14;18.30;56.50
67870;DHT22;54673;52.262;6.830;2022-10-19T04:08:41;18.30;56.60
67870;DHT22;54673;52.262;6.830;2022-10-19T04:11:10;18.30;56.40
67870;DHT22;54673;52.262;6.830;2022-10-19T04:13:37;18.30;56.40
67870;DHT22;54673;52.262;6.830;2022-10-19T04:16:02;18.30;56.40
67870;DHT22;54673;52.262;6.830;2022-10-19T04:18:28;18.30;56.40
67870;DHT22;54673;52.262;6.830;2022-10-19T04:20:59;18.30;56.40
67870;DHT22;54673;52.262;6.830;2022-10-19T04:23:30;18.30;56.30
67870;DHT22;54673;52.262;6.830;2022-10-19T04:26:06;18.30;56.30
67870;DHT22;54673;52.262;6.830;2022-10-19T04:28:32;18.30;56.20
67870;DHT22;54673;52.262;6.830;2022-10-19T04:31:02;18.30;56.20
67870;DHT22;54673;52.262;6.830;2022-10-19T04:33:28;18.30;56.20
67870;DHT22;54673;52.262;6.830;2022-10-19T04:35:57;18.20;56.20
67870;DHT22;54673;52.262;6.830;2022-10-19T04:38:24;18.20;56.20
67870;DHT22;54673;52.262;6.830;2022-10-19T04:40:49;18.30;56.20
67870;DHT22;54673;52.262;6.830;2022-10-19T04:43:15;18.30;56.20
67870;DHT22;54673;52.262;6.830;2022-10-19T04:45:40;18.20;56.10
67870;DHT22;54673;52.262;6.830;2022-10-19T04:48:06;18.20;56.10
67870;DHT22;54673;52.262;6.830;2022-10-19T04:50:32;18.20;56.00
67870;DHT22;54673;52.262;6.830;2022-10-19T04:52:58;18.20;56.90
67870;DHT22;54673;52.262;6.830;2022-10-19T04:55:23;18.20;56.00
67870;DHT22;54673;52.262;6.830;2022-10-19T04:57:49;18.20;56.00
67870;DHT22;54673;52.262;6.830;2022-10-19T05:00:15;18.20;56.00
67870;DHT22;54673;52.262;6.830;2022-10-19T05:02:44;18.20;55.90
67870;DHT22;54673;52.262;6.830;2022-10-19T05:05:11;18.20;55.90
67870;DHT22;54673;52.262;6.830;2022-10-19T05:07:37;18.20;55.90
67870;DHT22;54673;52.262;6.830;2022-10-19T05:10:03;18.10;55.80
67870;DHT22;54673;52.262;6.830;2022-10-19T05:12:29;18.20;55.90
67870;DHT22;54673;52.262;6.830;2022-10-19T05:14:54;18.20;55.90
67870;DHT22;54673;52.262;6.830;2022-10-19T05:17:20;18.10;55.80
67870;DHT22;54673;52.262;6.830;2022-10-19T05:19:45;18.10;55.80
67870;DHT22;54673;52.262;6.830;2022-10-19T05:22:11;18.10;55.70
67870;DHT22;54673;52.262;6.830;2022-10-19T05:24:36;18.10;55.70
67870;DHT22;54673;52.262;6.830;2022-10-19T05:27:02;18.10;55.70
67870;DHT22;54673;52.262;6.830;2022-10-19T05:29:28;18.10;55.80
67870;DHT22;54673;52.262;6.830;2022-10-19T05:31:54;18.10;55.70
67870;DHT22;54673;52.262;6.830;2022-10-19T05:34:20;18.10;55.70
67870;DHT22;54673;52.262;6.830;2022-10-19T05:36:45;18.10;55.60
67870;DHT22;54673;52.262;6.830;2022-10-19T05:39:15;18.10;55.60
67870;DHT22;54673;52.262;6.830;2022-10-19T05:41:43;18.10;55.70
67870;DHT22;54673;52.262;6.830;2022-10-19T05:44:13;18.10;55.60
67870;DHT22;54673;52.262;6.830;2022-10-19T05:46:39;18.10;55.60
67870;DHT22;54673;52.262;6.830;2022-10-19T05:49:04;18.00;55.50
67870;DHT22;54673;52.262;6.830;2022-10-19T05:51:30;18.10;55.50
67870;DHT22;54673;52.262;6.830;2022-10-19T05:53:56;18.10;55.60
67870;DHT22;54673;52.262;6.830;2022-10-19T05:56:25;18.10;55.50
67870;DHT22;54673;52.262;6.830;2022-10-19T05:58:50;18.10;55.40
67870;DHT22;54673;52.262;6.830;2022-10-19T06:01:17;18.00;55.40
67870;DHT22;54673;52.262;6.830;2022-10-19T06:03:44;18.00;55.30
67870;DHT22;54673;52.262;6.830;2022-10-19T06:06:10;18.00;55.30
67870;DHT22;54673;52.262;6.830;2022-10-19T06:08:37;18.00;55.30
67870;DHT22;54673;52.262;6.830;2022-10-19T06:11:05;18.00;55.40
67870;DHT22;54673;52.262;6.830;2022-10-19T06:13:31;18.00;55.40
67870;DHT22;54673;52.262;6.830;2022-10-19T06:15:57;18.00;55.30
67870;DHT22;54673;52.262;6.830;2022-10-19T06:18:22;18.00;55.30
67870;DHT22;54673;52.262;6.830;2022-10-19T06:20:51;18.00;55.30
67870;DHT22;54673;52.262;6.830;2022-10-19T06:23:17;18.00;55.30
67870;DHT22;54673;52.262;6.830;2022-10-19T06:25:43;18.00;55.30
67870;DHT22;54673;52.262;6.830;2022-10-19T06:28:09;18.00;55.40
67870;DHT22;54673;52.262;6.830;2022-10-19T06:30:38;17.90;55.40
67870;DHT22;54673;52.262;6.830;2022-10-19T06:33:04;17.90;55.50
67870;DHT22;54673;52.262;6.830;2022-10-19T06:35:30;18.00;55.60
67870;DHT22;54673;52.262;6.830;2022-10-19T06:37:56;18.00;55.60
67870;DHT22;54673;52.262;6.830;2022-10-19T06:40:23;18.00;55.70
67870;DHT22;54673;52.262;6.830;2022-10-19T06:42:49;18.00;55.70
67870;DHT22;54673;52.262;6.830;2022-10-19T06:45:14;18.00;55.80
67870;DHT22;54673;52.262;6.830;2022-10-19T06:47:40;18.00;55.80
67870;DHT22;54673;52.262;6.830;2022-10-19T06:50:06;18.00;55.80
67870;DHT22;54673;52.262;6.830;2022-10-19T06:52:33;18.00;55.80
67870;DHT22;54673;52.262;6.830;2022-10-19T06:54:59;18.00;55.90
67870;DHT22;54673;52.262;6.830;2022-10-19T06:57:24;18.00;55.90
67870;DHT22;54673;52.262;6.830;2022-10-19T06:59:50;18.00;55.90
67870;DHT22;54673;52.262;6.830;2022-10-19T07:02:15;18.00;56.00
67870;DHT22;54673;52.262;6.830;2022-10-19T07:04:41;18.00;55.90
67870;DHT22;54673;52.262;6.830;2022-10-19T07:07:06;18.00;55.90
67870;DHT22;54673;52.262;6.830;2022-10-19T07:09:32;18.00;56.00
67870;DHT22;54673;52.262;6.830;2022-10-19T07:11:58;18.00;56.00
67870;DHT22;54673;52.262;6.830;2022-10-19T07:14:24;18.00;56.00
67870;DHT22;54673;52.262;6.830;2022-10-19T07:16:50;18.00;56.00
67870;DHT22;54673;52.262;6.830;2022-10-19T07:19:16;18.00;56.00
67870;DHT22;54673;52.262;6.830;2022-10-19T07:21:42;18.00;56.00
67870;DHT22;54673;52.262;6.830;2022-10-19T07:24:09;18.00;56.10
67870;DHT22;54673;52.262;6.830;2022-10-19T07:26:34;18.00;56.00
67870;DHT22;54673;52.262;6.830;2022-10-19T07:29:00;18.00;56.10
67870;DHT22;54673;52.262;6.830;2022-10-19T07:31:28;18.00;56.20
67870;DHT22;54673;52.262;6.830;2022-10-19T07:33:56;18.00;56.10
67870;DHT22;54673;52.262;6.830;2022-10-19T07:36:23;18.00;56.20
67870;DHT22;54673;52.262;6.830;2022-10-19T07:38:48;18.00;58.20
67870;DHT22;54673;52.262;6.830;2022-10-19T07:41:17;18.00;58.40
67870;DHT22;54673;52.262;6.830;2022-10-19T07:43:44;18.00;57.30
67870;DHT22;54673;52.262;6.830;2022-10-19T07:46:13;18.00;57.30
67870;DHT22;54673;52.262;6.830;2022-10-19T07:48:39;18.00;57.20
67870;DHT22;54673;52.262;6.830;2022-10-19T07:51:06;18.00;57.10
67870;DHT22;54673;52.262;6.830;2022-10-19T07:53:33;18.00;57.10
67870;DHT22;54673;52.262;6.830;2022-10-19T07:56:03;18.00;57.10
67870;DHT22;54673;52.262;6.830;2022-10-19T07:58:29;18.00;57.00
67870;DHT22;54673;52.262;6.830;2022-10-19T08:01:19;18.00;57.10
67870;DHT22;54673;52.262;6.830;2022-10-19T08:03:46;18.10;57.00
67870;DHT22;54673;52.262;6.830;2022-10-19T08:06:15;18.10;57.10
67870;DHT22;54673;52.262;6.830;2022-10-19T08:08:41;18.10;57.10
67870;DHT22;54673;52.262;6.830;2022-10-19T08:13:37;18.10;57.10
67870;DHT22;54673;52.262;6.830;2022-10-19T08:16:04;18.10;57.10
67870;DHT22;54673;52.262;6.830;2022-10-19T08:18:30;18.10;57.10
67870;DHT22;54673;52.262;6.830;2022-10-19T08:20:56;18.10;57.10
67870;DHT22;54673;52.262;6.830;2022-10-19T08:23:22;18.10;57.10
67870;DHT22;54673;52.262;6.830;2022-10-19T08:25:48;18.00;57.10
67870;DHT22;54673;52.262;6.830;2022-10-19T08:28:14;18.10;57.20
67870;DHT22;54673;52.262;6.830;2022-10-19T08:30:40;18.10;57.20
67870;DHT22;54673;52.262;6.830;2022-10-19T08:33:05;18.10;57.20
67870;DHT22;54673;52.262;6.830;2022-10-19T08:35:33;18.10;57.30
67870;DHT22;54673;52.262;6.830;2022-10-19T08:37:59;18.10;57.30
67870;DHT22;54673;52.262;6.830;2022-10-19T08:40:28;18.10;57.30
67870;DHT22;54673;52.262;6.830;2022-10-19T08:43:04;18.10;57.30
67870;DHT22;54673;52.262;6.830;2022-10-19T08:45:46;18.10;57.30
67870;DHT22;54673;52.262;6.830;2022-10-19T08:50:46;18.10;57.40
67870;DHT22;54673;52.262;6.830;2022-10-19T08:55:50;18.10;57.50
67870;DHT22;54673;52.262;6.830;2022-10-19T09:03:39;18.10;57.50
67870;DHT22;54673;52.262;6.830;2022-10-19T09:08:56;18.10;57.60
67870;DHT22;54673;52.262;6.830;2022-10-19T09:11:26;18.10;57.60
67870;DHT22;54673;52.262;6.830;2022-10-19T09:14:15;18.10;57.70
67870;DHT22;54673;52.262;6.830;2022-10-19T09:16:42;18.10;57.80
67870;DHT22;54673;52.262;6.830;2022-10-19T09:19:14;18.10;58.70
67870;DHT22;54673;52.262;6.830;2022-10-19T09:24:56;18.10;57.80
67870;DHT22;54673;52.262;6.830;2022-10-19T09:27:35;18.20;57.90
67870;DHT22;54673;52.262;6.830;2022-10-19T09:30:14;18.10;57.90
67870;DHT22;54673;52.262;6.830;2022-10-19T09:32:41;18.10;57.90
67870;DHT22;54673;52.262;6.830;2022-10-19T09:35:23;18.20;58.00
67870;DHT22;54673;52.262;6.830;2022-10-19T09:37:50;18.20;58.00
67870;DHT22;54673;52.262;6.830;2022-10-19T09:40:20;18.20;58.00
67870;DHT22;54673;52.262;6.830;2022-10-19T09:42:46;18.20;58.20
67870;DHT22;54673;52.262;6.830;2022-10-19T09:45:33;18.20;57.90
67870;DHT22;54673;52.262;6.830;2022-10-19T09:48:02;18.10;57.90
67870;DHT22;54673;52.262;6.830;2022-10-19T09:50:30;18.20;58.10
67870;DHT22;54673;52.262;6.830;2022-10-19T09:53:02;18.20;58.00
67870;DHT22;54673;52.262;6.830;2022-10-19T09:58:23;18.20;58.10
67870;DHT22;54673;52.262;6.830;2022-10-19T10:00:51;18.20;58.90
67870;DHT22;54673;52.262;6.830;2022-10-19T10:05:55;18.20;58.10
67870;DHT22;54673;52.262;6.830;2022-10-19T10:08:24;18.20;58.00
67870;DHT22;54673;52.262;6.830;2022-10-19T10:13:29;18.20;58.80
67870;DHT22;54673;52.262;6.830;2022-10-19T10:15:58;18.20;57.80
67870;DHT22;54673;52.262;6.830;2022-10-19T10:18:25;18.20;57.80
67870;DHT22;54673;52.262;6.830;2022-10-19T10:23:24;18.20;57.70
67870;DHT22;54673;52.262;6.830;2022-10-19T10:25:54;18.20;57.70
67870;DHT22;54673;52.262;6.830;2022-10-19T10:28:23;18.20;57.60
67870;DHT22;54673;52.262;6.830;2022-10-19T10:30:53;18.30;57.50
67870;DHT22;54673;52.262;6.830;2022-10-19T10:33:24;18.20;57.40
67870;DHT22;54673;52.262;6.830;2022-10-19T10:35:54;18.20;57.30
67870;DHT22;54673;52.262;6.830;2022-10-19T10:38:32;18.20;57.20
67870;DHT22;54673;52.262;6.830;2022-10-19T10:41:02;18.20;57.20
67870;DHT22;54673;52.262;6.830;2022-10-19T10:43:31;18.20;57.00
67870;DHT22;54673;52.262;6.830;2022-10-19T10:46:14;18.20;57.10
67870;DHT22;54673;52.262;6.830;2022-10-19T10:48:44;18.20;57.10
67870;DHT22;54673;52.262;6.830;2022-10-19T10:51:37;18.20;57.10
67870;DHT22;54673;52.262;6.830;2022-10-19T10:56:33;18.20;56.90
67870;DHT22;54673;52.262;6.830;2022-10-19T10:59:05;18.20;56.80
67870;DHT22;54673;52.262;6.830;2022-10-19T11:01:41;18.20;56.80
67870;DHT22;54673;52.262;6.830;2022-10-19T11:04:14;18.20;56.60
67870;DHT22;54673;52.262;6.830;2022-10-19T11:06:45;18.20;56.60
67870;DHT22;54673;52.262;6.830;2022-10-19T11:09:41;18.20;56.50
67870;DHT22;54673;52.262;6.830;2022-10-19T11:12:11;18.20;56.60
67870;DHT22;54673;52.262;6.830;2022-10-19T11:17:21;18.20;56.70
67870;DHT22;54673;52.262;6.830;2022-10-19T11:19:49;18.20;56.70
67870;DHT22;54673;52.262;6.830;2022-10-19T11:22:28;18.20;56.60
67870;DHT22;54673;52.262;6.830;2022-10-19T11:30:24;18.20;56.40
67870;DHT22;54673;52.262;6.830;2022-10-19T11:33:03;18.20;56.40
67870;DHT22;54673;52.262;6.830;2022-10-19T11:35:58;18.20;56.30
67870;DHT22;54673;52.262;6.830;2022-10-19T11:41:42;18.20;56.00
67870;DHT22;54673;52.262;6.830;2022-10-19T11:44:16;18.20;56.10
67870;DHT22;54673;52.262;6.830;2022-10-19T11:52:28;18.20;56.20
67870;DHT22;54673;52.262;6.830;2022-10-19T12:00:22;18.20;56.00
67870;DHT22;54673;52.262;6.830;2022-10-19T12:11:21;18.20;56.00
67870;DHT22;54673;52.262;6.830;2022-10-19T12:14:08;18.20;56.00
67870;DHT22;54673;52.262;6.830;2022-10-19T12:16:39;18.20;56.10
67870;DHT22;54673;52.262;6.830;2022-10-19T12:19:15;18.20;56.10
67870;DHT22;54673;52.262;6.830;2022-10-19T12:21:43;18.20;56.20
67870;DHT22;54673;52.262;6.830;2022-10-19T12:24:19;18.20;56.00
67870;DHT22;54673;52.262;6.830;2022-10-19T12:26:46;18.20;56.00
67870;DHT22;54673;52.262;6.830;2022-10-19T12:29:24;18.20;56.00
67870;DHT22;54673;52.262;6.830;2022-10-19T12:31:52;17.60;55.60
67870;DHT22;54673;52.262;6.830;2022-10-19T12:34:57;18.30;56.30
67870;DHT22;54673;52.262;6.830;2022-10-19T12:37:53;18.20;56.20
67870;DHT22;54673;52.262;6.830;2022-10-19T12:40:45;18.30;56.30
67870;DHT22;54673;52.262;6.830;2022-10-19T12:45:45;18.30;56.30
67870;DHT22;54673;52.262;6.830;2022-10-19T12:53:35;18.30;56.30
67870;DHT22;54673;52.262;6.830;2022-10-19T13:01:19;18.30;56.20
67870;DHT22;54673;52.262;6.830;2022-10-19T13:03:46;18.30;56.10
67870;DHT22;54673;52.262;6.830;2022-10-19T13:06:28;18.30;56.00
67870;DHT22;54673;52.262;6.830;2022-10-19T13:09:01;18.30;56.90
67870;DHT22;54673;52.262;6.830;2022-10-19T13:11:27;18.30;56.00
67870;DHT22;54673;52.262;6.830;2022-10-19T13:32:42;18.40;55.90
67870;DHT22;54673;52.262;6.830;2022-10-19T13:40:39;18.70;56.10
67870;DHT22;54673;52.262;6.830;2022-10-19T13:43:22;18.70;55.90
67870;DHT22;54673;52.262;6.830;2022-10-19T13:51:41;19.00;55.60
67870;DHT22;54673;52.262;6.830;2022-10-19T14:05:07;19.10;51.80
67870;DHT22;54673;52.262;6.830;2022-10-19T14:07:55;19.00;51.70
67870;DHT22;54673;52.262;6.830;2022-10-19T14:10:26;19.00;52.10
67870;DHT22;54673;52.262;6.830;2022-10-19T14:12:52;18.90;52.50
67870;DHT22;54673;52.262;6.830;2022-10-19T14:15:19;18.90;52.70
67870;DHT22;54673;52.262;6.830;2022-10-19T14:17:45;18.90;52.90
67870;DHT22;54673;52.262;6.830;2022-10-19T14:20:26;18.80;52.90
67870;DHT22;54673;52.262;6.830;2022-10-19T14:22:52;18.80;53.00
67870;DHT22;54673;52.262;6.830;2022-10-19T14:25:21;18.80;53.20
67870;DHT22;54673;52.262;6.830;2022-10-19T14:27:50;18.70;53.40
67870;DHT22;54673;52.262;6.830;2022-10-19T14:30:29;18.70;53.50
67870;DHT22;54673;52.262;6.830;2022-10-19T14:32:58;18.70;53.70
67870;DHT22;54673;52.262;6.830;2022-10-19T14:35:33;18.60;53.90
67870;DHT22;54673;52.262;6.830;2022-10-19T14:38:00;18.60;54.00
67870;DHT22;54673;52.262;6.830;2022-10-19T14:40:36;18.60;54.10
67870;DHT22;54673;52.262;6.830;2022-10-19T14:43:12;18.60;54.20
67870;DHT22;54673;52.262;6.830;2022-10-19T14:45:43;18.60;55.00
67870;DHT22;54673;52.262;6.830;2022-10-19T14:48:16;18.60;54.30
67870;DHT22;54673;52.262;6.830;2022-10-19T14:50:51;18.60;54.30
67870;DHT22;54673;52.262;6.830;2022-10-19T14:55:59;18.60;54.30
67870;DHT22;54673;52.262;6.830;2022-10-19T14:58:28;18.60;54.30
67870;DHT22;54673;52.262;6.830;2022-10-19T15:00:56;18.60;54.30
67870;DHT22;54673;52.262;6.830;2022-10-19T15:03:26;18.60;54.30
67870;DHT22;54673;52.262;6.830;2022-10-19T15:05:58;18.60;54.50
67870;DHT22;54673;52.262;6.830;2022-10-19T15:11:02;18.60;54.40
67870;DHT22;54673;52.262;6.830;2022-10-19T15:13:39;18.60;54.60
67870;DHT22;54673;52.262;6.830;2022-10-19T15:16:05;18.60;54.70
67870;DHT22;54673;52.262;6.830;2022-10-19T15:18:50;18.60;54.70
67870;DHT22;54673;52.262;6.830;2022-10-19T15:21:19;18.60;54.70
67870;DHT22;54673;52.262;6.830;2022-10-19T15:23:51;18.60;54.70
67870;DHT22;54673;52.262;6.830;2022-10-19T15:26:26;18.60;54.70
67870;DHT22;54673;52.262;6.830;2022-10-19T15:29:05;18.60;54.70
67870;DHT22;54673;52.262;6.830;2022-10-19T15:31:31;18.60;54.80
67870;DHT22;54673;52.262;6.830;2022-10-19T15:33:58;18.60;55.10
67870;DHT22;54673;52.262;6.830;2022-10-19T15:36:25;18.50;55.10
67870;DHT22;54673;52.262;6.830;2022-10-19T15:39:02;18.50;55.10
67870;DHT22;54673;52.262;6.830;2022-10-19T15:41:38;18.50;55.30
67870;DHT22;54673;52.262;6.830;2022-10-19T15:44:05;18.50;55.60
67870;DHT22;54673;52.262;6.830;2022-10-19T15:47:20;18.50;55.50
67870;DHT22;54673;52.262;6.830;2022-10-19T15:50:09;18.50;55.50
67870;DHT22;54673;52.262;6.830;2022-10-19T15:52:54;18.60;55.60
67870;DHT22;54673;52.262;6.830;2022-10-19T15:55:19;18.50;55.60
67870;DHT22;54673;52.262;6.830;2022-10-19T15:57:45;18.50;55.70
67870;DHT22;54673;52.262;6.830;2022-10-19T16:00:22;18.50;55.70
67870;DHT22;54673;52.262;6.830;2022-10-19T16:02:47;18.50;55.70
67870;DHT22;54673;52.262;6.830;2022-10-19T16:05:13;18.50;55.80
67870;DHT22;54673;52.262;6.830;2022-10-19T16:07:40;18.50;55.80
67870;DHT22;54673;52.262;6.830;2022-10-19T16:10:06;18.50;55.80
67870;DHT22;54673;52.262;6.830;2022-10-19T16:12:32;18.50;55.90
67870;DHT22;54673;52.262;6.830;2022-10-19T16:14:58;18.50;56.10
67870;DHT22;54673;52.262;6.830;2022-10-19T16:17:24;18.50;56.00
67870;DHT22;54673;52.262;6.830;2022-10-19T16:19:49;18.50;56.00
67870;DHT22;54673;52.262;6.830;2022-10-19T16:22:15;18.50;56.10
67870;DHT22;54673;52.262;6.830;2022-10-19T16:24:41;18.50;56.10
67870;DHT22;54673;52.262;6.830;2022-10-19T16:27:07;18.50;56.10
67870;DHT22;54673;52.262;6.830;2022-10-19T16:29:33;18.50;57.00
67870;DHT22;54673;52.262;6.830;2022-10-19T16:31:59;18.50;56.10
67870;DHT22;54673;52.262;6.830;2022-10-19T16:34:25;18.50;56.10
67870;DHT22;54673;52.262;6.830;2022-10-19T16:36:51;18.50;56.10
67870;DHT22;54673;52.262;6.830;2022-10-19T16:39:17;18.50;56.20
67870;DHT22;54673;52.262;6.830;2022-10-19T16:41:43;18.50;56.20
67870;DHT22;54673;52.262;6.830;2022-10-19T16:44:10;18.50;56.20
67870;DHT22;54673;52.262;6.830;2022-10-19T16:46:37;18.50;56.20
67870;DHT22;54673;52.262;6.830;2022-10-19T16:49:02;18.50;56.20
67870;DHT22;54673;52.262;6.830;2022-10-19T16:51:36;18.50;56.20
67870;DHT22;54673;52.262;6.830;2022-10-19T16:54:03;18.50;56.20
67870;DHT22;54673;52.262;6.830;2022-10-19T16:56:31;18.50;56.20
67870;DHT22;54673;52.262;6.830;2022-10-19T16:59:00;18.50;56.20
67870;DHT22;54673;52.262;6.830;2022-10-19T17:01:26;18.50;57.10
67870;DHT22;54673;52.262;6.830;2022-10-19T17:03:52;18.50;56.30
67870;DHT22;54673;52.262;6.830;2022-10-19T17:06:18;18.40;56.20
67870;DHT22;54673;52.262;6.830;2022-10-19T17:08:45;18.50;56.30
67870;DHT22;54673;52.262;6.830;2022-10-19T17:11:20;18.40;56.20
67870;DHT22;54673;52.262;6.830;2022-10-19T17:13:48;18.40;56.30
67870;DHT22;54673;52.262;6.830;2022-10-19T17:16:14;18.40;56.30
67870;DHT22;54673;52.262;6.830;2022-10-19T17:18:41;18.50;56.30
67870;DHT22;54673;52.262;6.830;2022-10-19T17:21:12;18.40;56.30
67870;DHT22;54673;52.262;6.830;2022-10-19T17:23:39;18.40;56.20
67870;DHT22;54673;52.262;6.830;2022-10-19T17:26:06;18.40;56.30
67870;DHT22;54673;52.262;6.830;2022-10-19T17:28:32;18.40;56.20
67870;DHT22;54673;52.262;6.830;2022-10-19T17:31:07;18.40;56.30
67870;DHT22;54673;52.262;6.830;2022-10-19T17:33:33;18.40;56.30
67870;DHT22;54673;52.262;6.830;2022-10-19T17:36:04;18.40;56.30
67870;DHT22;54673;52.262;6.830;2022-10-19T17:38:30;18.40;56.30
67870;DHT22;54673;52.262;6.830;2022-10-19T17:41:04;18.40;56.30
67870;DHT22;54673;52.262;6.830;2022-10-19T17:43:30;18.40;56.30
67870;DHT22;54673;52.262;6.830;2022-10-19T17:45:57;18.40;56.40
67870;DHT22;54673;52.262;6.830;2022-10-19T17:48:23;18.40;56.60
67870;DHT22;54673;52.262;6.830;2022-10-19T17:50:56;18.40;56.70
67870;DHT22;54673;52.262;6.830;2022-10-19T17:53:22;18.40;56.70
67870;DHT22;54673;52.262;6.830;2022-10-19T17:55:48;18.40;56.70
67870;DHT22;54673;52.262;6.830;2022-10-19T17:58:13;18.40;56.60
67870;DHT22;54673;52.262;6.830;2022-10-19T18:00:39;18.40;56.60
67870;DHT22;54673;52.262;6.830;2022-10-19T18:03:04;18.40;56.70
67870;DHT22;54673;52.262;6.830;2022-10-19T18:05:30;18.40;56.70
67870;DHT22;54673;52.262;6.830;2022-10-19T18:07:56;18.40;56.70
67870;DHT22;54673;52.262;6.830;2022-10-19T18:10:21;18.40;56.70
67870;DHT22;54673;52.262;6.830;2022-10-19T18:12:47;18.40;56.70
67870;DHT22;54673;52.262;6.830;2022-10-19T18:15:12;18.40;56.70
67870;DHT22;54673;52.262;6.830;2022-10-19T18:17:38;18.30;56.60
67870;DHT22;54673;52.262;6.830;2022-10-19T18:20:04;18.40;56.60